Time;durP1;ratioP1;P1;durP2;ratioP2;P2;SDS_P1;SDS_P2;PMS_P1;PMS_P2;Temp;Humidity;BMP_temperature;BMP_pressure;BME280_temperature;BME280_humidity;BME280_pressure;Samples;Min_cycle;Max_cycle;Signal;HPM_P1;HPM_P2
2022/04/09 00:00:33;;;;;;;5.50;2.22;;;;;;;4.79;71.31;99609.97;4963463;28;20020;-70
2022/04/09 00:02:59;;;;;;;6.57;2.03;;;;;;;4.82;71.48;99618.44;4963244;28;20112;-70
2022/04/09 00:05:25;;;;;;;7.63;2.17;;;;;;;4.70;72.17;99626.50;4935416;28;20015;-69
2022/04/09 00:07:50;;;;;;;6.68;1.90;;;;;;;4.71;72.13;99628.13;4933365;28;20826;-70
2022/04/09 00:10:15;;;;;;;6.10;1.73;;;;;;;4.75;71.77;99632.16;4936986;28;20052;-70
2022/04/09 00:12:45;;;;;;;5.32;2.10;;;;;;;4.63;72.43;99634.84;4958470;28;20037;-71
2022/04/09 00:15:10;;;;;;;3.92;2.08;;;;;;;4.64;72.70;99643.53;4951305;28;20130;-71
2022/04/09 00:17:41;;;;;;;7.15;1.98;;;;;;;4.65;72.37;99645.19;4941138;28;20018;-70
2022/04/09 00:20:07;;;;;;;7.97;2.45;;;;;;;4.69;72.39;99657.09;4951861;28;20425;-70
2022/04/09 00:22:33;;;;;;;7.07;1.80;;;;;;;4.64;72.60;99657.47;4943943;28;20022;-70
2022/04/09 00:24:58;;;;;;;9.68;2.10;;;;;;;4.71;72.74;99660.44;4956812;28;20502;-70
2022/04/09 00:27:24;;;;;;;8.65;2.40;;;;;;;4.76;72.54;99670.53;4954124;28;20805;-71
2022/04/09 00:29:49;;;;;;;7.35;2.38;;;;;;;4.72;72.72;99669.94;4959383;28;20084;-71
2022/04/09 00:32:14;;;;;;;5.53;1.88;;;;;;;4.60;72.54;99684.88;4948185;28;20093;-71
2022/04/09 00:34:40;;;;;;;6.63;2.28;;;;;;;4.72;72.49;99684.84;4968035;28;20828;-69
2022/04/09 00:37:05;;;;;;;6.25;2.30;;;;;;;4.66;72.93;99691.41;4953893;28;20013;-69
2022/04/09 00:39:31;;;;;;;9.63;2.60;;;;;;;4.73;73.10;99699.59;4954643;28;20035;-69
2022/04/09 00:41:56;;;;;;;5.35;2.33;;;;;;;4.71;73.03;99702.34;4952482;28;20015;-69
2022/04/09 00:44:21;;;;;;;7.28;2.58;;;;;;;4.76;72.70;99707.22;4956950;28;20822;-70
2022/04/09 00:46:47;;;;;;;8.85;2.30;;;;;;;4.70;73.12;99705.09;4956210;28;20595;-67
2022/04/09 00:49:12;;;;;;;7.18;2.10;;;;;;;4.74;73.03;99717.81;4951999;28;20121;-70
2022/04/09 00:51:41;;;;;;;7.47;2.72;;;;;;;4.76;73.14;99718.50;4943909;28;20073;-69
2022/04/09 00:54:08;;;;;;;7.50;2.65;;;;;;;4.89;72.93;99720.16;4955485;28;20026;-70
2022/04/09 00:56:33;;;;;;;8.98;2.45;;;;;;;4.87;72.72;99730.75;4953817;28;20010;-70
2022/04/09 00:59:01;;;;;;;7.95;2.33;;;;;;;4.81;73.35;99728.66;4955210;28;20010;-70
2022/04/09 01:01:29;;;;;;;7.30;2.45;;;;;;;4.92;72.62;99741.72;4959932;28;20379;-71
2022/04/09 01:03:55;;;;;;;9.02;2.80;;;;;;;4.78;73.19;99749.84;4951585;28;20809;-70
2022/04/09 01:06:20;;;;;;;7.43;2.60;;;;;;;4.88;73.11;99750.78;4963559;28;19998;-71
2022/04/09 01:08:46;;;;;;;6.72;2.50;;;;;;;4.78;73.01;99758.56;4996701;28;20022;-71
2022/04/09 01:11:11;;;;;;;8.32;3.20;;;;;;;4.64;73.41;99759.66;4974301;28;20026;-70
2022/04/09 01:13:37;;;;;;;5.78;2.55;;;;;;;4.59;73.90;99767.03;4922594;28;20549;-70
2022/04/09 01:16:03;;;;;;;9.40;3.30;;;;;;;4.66;73.82;99772.63;4951963;28;20236;-70
2022/04/09 01:18:30;;;;;;;9.60;3.00;;;;;;;4.52;74.50;99780.78;4937988;28;20007;-70
2022/04/09 01:20:59;;;;;;;8.00;3.20;;;;;;;4.60;74.26;99788.88;4959698;28;20023;-70
2022/04/09 01:23:25;;;;;;;10.77;2.85;;;;;;;4.68;74.15;99790.84;4965427;28;20033;-70
2022/04/09 01:25:51;;;;;;;10.85;2.80;;;;;;;4.59;73.93;99800.28;4954056;28;20026;-70
2022/04/09 01:28:16;;;;;;;11.07;3.13;;;;;;;4.57;74.53;99805.66;4970121;28;20369;-70
2022/04/09 01:30:42;;;;;;;9.50;2.63;;;;;;;4.49;74.85;99797.56;4957941;28;20106;-71
2022/04/09 01:33:07;;;;;;;8.48;3.13;;;;;;;4.49;74.92;99813.28;4940449;28;20039;-71
2022/04/09 01:35:32;;;;;;;10.35;3.17;;;;;;;4.44;74.88;99810.19;4952724;28;20026;-70
2022/04/09 01:37:58;;;;;;;11.57;2.80;;;;;;;4.49;74.93;99821.13;4955616;28;21004;-70
2022/04/09 01:40:23;;;;;;;10.60;3.15;;;;;;;4.47;75.11;99826.50;4971860;28;20024;-70
2022/04/09 01:42:48;;;;;;;10.18;3.55;;;;;;;4.51;74.81;99828.88;4957055;28;20019;-70
2022/04/09 01:45:14;;;;;;;9.80;3.00;;;;;;;4.44;75.15;99834.59;4949365;28;20054;-73
2022/04/09 01:47:42;;;;;;;11.88;3.42;;;;;;;4.47;74.76;99844.03;4958022;28;20018;-71
2022/04/09 01:50:09;;;;;;;10.82;3.03;;;;;;;4.47;75.06;99850.06;4946213;28;20057;-70
2022/04/09 01:52:35;;;;;;;11.50;3.10;;;;;;;4.51;75.03;99849.84;4967387;28;20034;-70
2022/04/09 01:55:00;;;;;;;13.93;3.20;;;;;;;4.44;74.78;99852.94;4968782;28;20047;-71
2022/04/09 01:57:25;;;;;;;15.15;3.55;;;;;;;4.44;74.75;99854.72;4953842;28;20047;-70
2022/04/09 01:59:51;;;;;;;9.32;2.60;;;;;;;4.36;75.42;99867.56;4961810;28;20023;-70
2022/04/09 02:02:16;;;;;;;11.13;3.03;;;;;;;4.42;75.96;99864.50;4942877;28;20870;-72
2022/04/09 02:04:41;;;;;;;7.95;2.80;;;;;;;4.46;75.13;99871.97;4952487;28;21162;-69
2022/04/09 02:07:07;;;;;;;9.23;3.00;;;;;;;4.43;75.36;99876.63;4954045;28;20018;-69
2022/04/09 02:09:32;;;;;;;7.63;2.85;;;;;;;4.45;75.64;99878.16;4955157;28;20851;-70
2022/04/09 02:11:59;;;;;;;12.02;2.70;;;;;;;4.40;75.71;99888.19;4951893;28;20932;-69
2022/04/09 02:14:24;;;;;;;11.20;2.67;;;;;;;4.51;75.47;99881.28;4952081;28;20030;-70
2022/04/09 02:16:50;;;;;;;12.13;3.40;;;;;;;4.52;75.33;99885.56;4948113;28;20416;-72
2022/04/09 02:19:17;;;;;;;15.20;3.33;;;;;;;4.50;75.42;99895.31;4952468;28;20021;-72
2022/04/09 02:21:42;;;;;;;11.68;2.67;;;;;;;4.52;76.11;99898.66;4963777;28;20095;-72
2022/04/09 02:24:09;;;;;;;13.82;3.22;;;;;;;4.51;75.73;99904.84;4954441;28;20015;-71
2022/04/09 02:26:34;;;;;;;15.80;3.00;;;;;;;4.47;75.51;99910.34;4957651;28;20452;-71
2022/04/09 02:29:00;;;;;;;5.47;2.58;;;;;;;4.51;75.73;99920.56;4956775;28;20030;-71
2022/04/09 02:31:25;;;;;;;6.97;2.55;;;;;;;4.59;75.25;99920.81;4964097;28;20528;-71
2022/04/09 02:33:50;;;;;;;11.15;3.00;;;;;;;4.58;75.39;99916.53;4943731;28;20128;-71
2022/04/09 02:36:16;;;;;;;7.90;2.95;;;;;;;4.63;74.89;99927.50;4938222;28;20034;-72
2022/04/09 02:38:42;;;;;;;10.35;3.05;;;;;;;4.55;74.82;99928.06;4968237;28;20031;-71
2022/04/09 02:41:10;;;;;;;10.52;2.75;;;;;;;4.57;75.26;99933.19;4950350;28;20897;-71
2022/04/09 02:43:36;;;;;;;7.75;2.70;;;;;;;4.52;75.53;99937.97;4961178;28;20038;-71
2022/04/09 02:46:02;;;;;;;6.35;2.85;;;;;;;4.66;75.32;99945.59;4966395;28;20836;-71
2022/04/09 02:48:27;;;;;;;11.73;3.00;;;;;;;4.78;75.23;99955.13;4948890;28;20907;-71
2022/04/09 02:50:53;;;;;;;11.80;3.45;;;;;;;4.72;74.73;99945.09;4968093;28;20351;-70
2022/04/09 02:53:19;;;;;;;9.85;2.80;;;;;;;4.64;75.02;99961.44;4955639;28;20923;-71
2022/04/09 02:55:45;;;;;;;13.70;3.28;;;;;;;4.61;75.37;99966.06;4960804;28;20058;-70
2022/04/09 02:58:10;;;;;;;11.57;3.40;;;;;;;4.65;74.15;99970.13;4959596;28;20018;-70
2022/04/09 03:00:35;;;;;;;11.88;3.15;;;;;;;4.68;74.53;99972.50;4967084;28;20505;-71
2022/04/09 03:03:01;;;;;;;9.43;2.80;;;;;;;4.62;74.27;99978.22;4972195;28;20457;-71
2022/04/09 03:05:26;;;;;;;13.50;3.20;;;;;;;4.68;74.38;99979.53;4967095;28;21884;-71
2022/04/09 03:07:52;;;;;;;8.77;3.05;;;;;;;4.62;74.65;99997.38;4969022;28;20182;-70
2022/04/09 03:10:17;;;;;;;12.82;3.38;;;;;;;4.58;74.49;99989.88;4962968;28;20015;-71
2022/04/09 03:12:43;;;;;;;9.85;3.13;;;;;;;4.58;74.25;99992.50;4961100;28;20026;-70
2022/04/09 03:15:09;;;;;;;12.82;3.72;;;;;;;4.65;73.66;99996.31;4955813;28;20967;-70
2022/04/09 03:17:34;;;;;;;12.75;3.10;;;;;;;4.63;74.52;100004.31;4939417;28;20027;-71
2022/04/09 03:19:59;;;;;;;11.88;3.40;;;;;;;4.69;73.39;100000.38;4962930;28;20022;-70
2022/04/09 03:22:27;;;;;;;8.18;3.00;;;;;;;4.75;73.94;100005.19;4952248;28;20180;-71
2022/04/09 03:24:56;;;;;;;14.20;3.15;;;;;;;4.79;73.49;100014.47;4941350;28;20127;-70
2022/04/09 03:27:21;;;;;;;12.32;3.58;;;;;;;4.78;73.59;100018.03;4956639;28;20011;-69
2022/04/09 03:29:47;;;;;;;9.90;2.80;;;;;;;4.79;73.18;100027.59;4958091;28;20045;-70
2022/04/09 03:32:12;;;;;;;14.23;2.85;;;;;;;4.78;73.36;100028.53;4968009;28;20022;-69
2022/04/09 03:34:38;;;;;;;13.65;2.80;;;;;;;4.79;72.98;100030.19;4961220;28;20090;-69
2022/04/09 03:37:03;;;;;;;13.23;2.90;;;;;;;4.85;73.06;100028.91;4942587;28;20784;-72
2022/04/09 03:39:29;;;;;;;9.85;2.65;;;;;;;4.84;73.11;100036.84;4950639;28;20275;-72
2022/04/09 03:41:55;;;;;;;10.23;3.03;;;;;;;4.80;73.96;100037.09;4953272;28;20022;-70
2022/04/09 03:44:20;;;;;;;11.95;3.08;;;;;;;4.76;73.59;100025.16;4961046;28;20025;-70
2022/04/09 03:46:46;;;;;;;12.15;3.20;;;;;;;4.80;73.62;100038.88;4950854;28;20513;-70
2022/04/09 03:49:11;;;;;;;11.68;3.28;;;;;;;4.79;73.60;100032.81;4985976;28;20002;-71
2022/04/09 03:51:36;;;;;;;11.32;3.10;;;;;;;4.80;73.07;100044.13;4935836;28;20629;-70
2022/04/09 03:54:02;;;;;;;12.30;2.78;;;;;;;4.82;73.41;100044.84;4970649;28;20472;-71
2022/04/09 03:56:27;;;;;;;10.57;2.58;;;;;;;4.82;73.38;100050.94;4959058;28;20019;-71
2022/04/09 03:58:53;;;;;;;13.40;3.38;;;;;;;4.80;73.32;100060.69;4944103;28;20014;-71
2022/04/09 04:01:18;;;;;;;12.32;2.60;;;;;;;4.89;72.60;100060.94;4953104;28;20022;-70
2022/04/09 04:03:45;;;;;;;12.05;3.17;;;;;;;4.95;72.61;100061.31;4951794;28;20259;-73
2022/04/09 04:06:10;;;;;;;10.82;2.67;;;;;;;4.88;72.89;100065.34;4963891;28;20022;-70
2022/04/09 04:08:35;;;;;;;15.02;3.30;;;;;;;4.81;72.52;100064.16;4963443;28;20005;-70
2022/04/09 04:11:02;;;;;;;10.98;3.10;;;;;;;4.79;73.18;100069.53;4966050;28;20418;-70
2022/04/09 04:13:27;;;;;;;9.80;2.78;;;;;;;4.80;73.64;100073.78;4964362;28;20033;-70
2022/04/09 04:15:54;;;;;;;9.35;3.60;;;;;;;4.81;72.89;100075.47;4976099;28;20834;-71
2022/04/09 04:18:19;;;;;;;12.02;3.50;;;;;;;4.72;73.64;100080.56;4949063;28;20014;-70
2022/04/09 04:20:44;;;;;;;13.00;3.15;;;;;;;4.70;73.87;100082.47;4986913;28;20097;-71
2022/04/09 04:23:10;;;;;;;9.27;3.20;;;;;;;4.78;73.31;100091.44;4976187;28;20060;-70
2022/04/09 04:25:36;;;;;;;16.05;3.55;;;;;;;4.79;74.13;100087.88;4969644;28;20022;-70
2022/04/09 04:28:01;;;;;;;9.93;3.00;;;;;;;4.82;73.55;100098.13;4972268;28;20162;-70
2022/04/09 04:30:26;;;;;;;12.00;3.33;;;;;;;4.76;73.67;100100.34;4970764;28;20530;-71
2022/04/09 04:32:52;;;;;;;13.32;3.38;;;;;;;4.74;74.26;100100.47;4943823;28;20209;-70
2022/04/09 04:35:17;;;;;;;13.82;3.30;;;;;;;4.77;74.22;100105.47;4969362;28;20718;-71
2022/04/09 04:37:45;;;;;;;14.32;3.13;;;;;;;4.72;74.41;100110.22;4948219;28;20093;-71
2022/04/09 04:40:10;;;;;;;8.63;3.20;;;;;;;4.65;74.23;100116.88;4952790;28;20085;-71
2022/04/09 04:42:36;;;;;;;10.63;3.90;;;;;;;4.74;74.43;100126.69;4950981;28;20590;-70
2022/04/09 04:45:02;;;;;;;13.65;3.15;;;;;;;4.71;74.44;100128.69;4958767;28;20010;-72
2022/04/09 04:47:28;;;;;;;13.43;3.28;;;;;;;4.89;73.93;100135.16;4936132;28;20057;-70
2022/04/09 04:49:53;;;;;;;13.45;3.40;;;;;;;4.77;74.32;100139.56;4948715;28;20018;-70
2022/04/09 04:52:19;;;;;;;12.68;3.22;;;;;;;4.80;74.12;100139.31;4968532;28;20022;-70
2022/04/09 04:54:44;;;;;;;12.73;3.17;;;;;;;4.84;74.27;100142.56;4937633;28;20029;-70
2022/04/09 04:57:10;;;;;;;11.95;3.20;;;;;;;4.88;73.66;100154.50;4935439;28;20528;-70
2022/04/09 04:59:35;;;;;;;12.93;3.20;;;;;;;4.81;73.63;100154.09;4953884;28;20015;-69
2022/04/09 05:02:00;;;;;;;11.40;3.58;;;;;;;4.87;73.60;100157.22;4977570;28;20014;-72
2022/04/09 05:04:26;;;;;;;16.33;3.15;;;;;;;4.85;73.78;100164.34;4962540;28;20033;-72
2022/04/09 05:06:51;;;;;;;11.85;3.45;;;;;;;4.78;73.10;100175.31;4935626;28;20882;-71
2022/04/09 05:09:17;;;;;;;13.80;3.20;;;;;;;4.79;73.71;100161.25;4953638;28;20365;-72
2022/04/09 05:11:43;;;;;;;13.82;3.03;;;;;;;4.88;73.01;100179.84;4972856;28;20015;-72
2022/04/09 05:14:09;;;;;;;12.23;3.47;;;;;;;4.92;73.04;100182.16;4952648;28;20045;-72
2022/04/09 05:16:34;;;;;;;10.50;3.03;;;;;;;4.98;72.58;100191.34;4959737;28;20015;-74
2022/04/09 05:18:59;;;;;;;14.20;3.13;;;;;;;5.01;72.25;100188.50;4935415;28;20812;-71
2022/04/09 05:21:25;;;;;;;19.67;4.43;;;;;;;4.98;71.93;100196.59;4935642;28;20029;-70
2022/04/09 05:23:51;;;;;;;11.63;3.22;;;;;;;5.05;72.09;100191.69;4958098;28;20112;-72
2022/04/09 05:26:16;;;;;;;12.52;3.08;;;;;;;5.12;71.38;100203.44;4916206;28;20487;-72
2022/04/09 05:28:41;;;;;;;12.27;3.30;;;;;;;5.13;71.63;100200.69;4935356;28;20690;-72
2022/04/09 05:31:09;;;;;;;12.75;2.97;;;;;;;4.97;71.82;100206.22;4947299;28;20023;-72
2022/04/09 05:33:34;;;;;;;14.13;3.30;;;;;;;5.04;72.10;100217.09;4949976;28;20070;-70
2022/04/09 05:35:59;;;;;;;15.55;3.15;;;;;;;4.85;72.30;100217.66;4969080;28;20970;-71
2022/04/09 05:38:25;;;;;;;10.45;2.75;;;;;;;4.94;72.48;100227.44;4954244;28;20026;-72
2022/04/09 05:40:50;;;;;;;15.23;3.10;;;;;;;4.90;72.51;100228.59;4952824;28;20340;-71
2022/04/09 05:43:16;;;;;;;13.13;2.90;;;;;;;4.92;72.75;100220.63;4935992;28;20058;-72
2022/04/09 05:45:41;;;;;;;11.18;2.95;;;;;;;4.90;71.99;100231.22;4933592;28;20019;-72
2022/04/09 05:48:07;;;;;;;9.60;3.22;;;;;;;4.93;72.28;100235.41;4953143;28;20247;-70
2022/04/09 05:50:32;;;;;;;14.20;3.35;;;;;;;5.04;71.81;100227.59;4946322;28;20030;-72
2022/04/09 05:52:57;;;;;;;7.95;3.03;;;;;;;4.85;72.40;100237.75;4946099;28;20018;-71
2022/04/09 05:55:23;;;;;;;15.77;3.55;;;;;;;4.89;72.38;100239.22;4957966;28;20052;-72
2022/04/09 05:57:48;;;;;;;19.20;3.40;;;;;;;4.94;71.92;100242.34;4946950;28;20025;-71
2022/04/09 06:00:16;;;;;;;14.50;3.28;;;;;;;4.92;72.31;100250.31;4941964;28;20025;-70
2022/04/09 06:02:42;;;;;;;13.13;3.30;;;;;;;4.81;72.89;100240.63;4955528;28;20996;-72
2022/04/09 06:05:08;;;;;;;12.50;3.35;;;;;;;4.86;73.00;100253.38;4962083;28;20019;-71
2022/04/09 06:07:34;;;;;;;18.42;3.83;;;;;;;4.73;73.95;100260.47;4960807;28;20118;-69
2022/04/09 06:10:00;;;;;;;15.02;3.90;;;;;;;4.69;74.26;100262.47;4974663;28;20125;-68
2022/04/09 06:12:25;;;;;;;13.77;3.40;;;;;;;4.65;74.36;100266.25;4946194;28;20163;-70
2022/04/09 06:14:51;;;;;;;13.60;3.72;;;;;;;4.61;74.49;100272.66;4945740;28;20076;-71
2022/04/09 06:17:16;;;;;;;14.63;3.70;;;;;;;4.70;74.85;100271.19;4962473;28;20019;-73
2022/04/09 06:19:41;;;;;;;11.55;3.17;;;;;;;4.76;74.68;100276.78;4966024;28;20011;-71
2022/04/09 06:22:07;;;;;;;14.07;3.53;;;;;;;4.85;73.95;100293.66;4969278;28;20259;-70
2022/04/09 06:24:32;;;;;;;15.07;3.10;;;;;;;4.91;73.65;100292.38;4951539;28;20753;-71
2022/04/09 06:26:58;;;;;;;11.80;3.17;;;;;;;5.06;73.08;100298.28;4929453;28;20577;-70
2022/04/09 06:29:23;;;;;;;15.88;3.70;;;;;;;5.18;72.99;100301.81;4953135;28;20771;-72
2022/04/09 06:31:49;;;;;;;10.63;3.55;;;;;;;5.26;72.23;100304.69;4953786;28;20030;-74
2022/04/09 06:34:15;;;;;;;14.65;3.80;;;;;;;5.16;72.35;100305.38;4953967;28;20029;-70
2022/04/09 06:36:40;;;;;;;16.02;3.30;;;;;;;5.10;72.16;100316.28;4948421;28;20003;-70
2022/04/09 06:39:05;;;;;;;11.45;3.15;;;;;;;5.07;72.23;100318.31;4947790;28;20802;-70
2022/04/09 06:41:33;;;;;;;10.73;3.08;;;;;;;5.05;72.30;100325.44;4942593;28;21149;-70
2022/04/09 06:43:58;;;;;;;14.40;4.15;;;;;;;5.04;72.36;100322.00;4960842;28;20314;-69
2022/04/09 06:46:24;;;;;;;14.77;3.88;;;;;;;5.18;72.58;100328.03;4958886;28;20179;-70
2022/04/09 06:48:49;;;;;;;16.88;3.58;;;;;;;5.18;71.91;100333.28;4948410;28;20284;-71
2022/04/09 06:51:14;;;;;;;12.65;3.70;;;;;;;5.15;71.85;100335.16;4933875;28;20007;-71
2022/04/09 06:53:40;;;;;;;14.23;3.40;;;;;;;5.29;71.33;100347.28;4969708;28;20038;-72
2022/04/09 06:56:05;;;;;;;14.60;4.55;;;;;;;5.41;71.44;100337.66;4947976;28;20083;-70
2022/04/09 06:58:31;;;;;;;13.15;3.75;;;;;;;5.56;70.79;100342.75;4931128;28;20589;-69
2022/04/09 07:00:56;;;;;;;12.60;3.58;;;;;;;5.63;70.12;100349.19;4964235;28;20025;-71
2022/04/09 07:03:21;;;;;;;13.02;4.22;;;;;;;5.84;69.56;100341.50;4963045;28;20802;-72
2022/04/09 07:05:47;;;;;;;15.63;3.65;;;;;;;5.89;69.07;100343.78;4952457;28;20083;-72
2022/04/09 07:08:12;;;;;;;13.80;3.83;;;;;;;5.99;69.10;100355.28;4956520;28;20034;-72
2022/04/09 07:10:38;;;;;;;10.35;3.45;;;;;;;6.20;68.66;100358.03;4969264;28;20022;-72
2022/04/09 07:13:04;;;;;;;11.73;3.55;;;;;;;6.24;67.98;100363.91;4969492;28;20022;-73
2022/04/09 07:15:29;;;;;;;10.88;3.28;;;;;;;6.31;67.94;100365.09;4945014;28;20197;-73
2022/04/09 07:17:55;;;;;;;16.92;4.10;;;;;;;6.40;67.69;100361.75;4952986;28;20425;-72
2022/04/09 07:20:21;;;;;;;16.25;3.83;;;;;;;6.53;67.26;100356.41;4970102;28;20413;-70
2022/04/09 07:22:46;;;;;;;11.77;3.22;;;;;;;6.49;66.61;100368.94;4964996;28;20014;-70
2022/04/09 07:25:12;;;;;;;13.68;4.00;;;;;;;6.48;66.68;100383.03;4966318;28;20441;-73
2022/04/09 07:27:38;;;;;;;13.55;3.97;;;;;;;6.38;66.74;100376.81;4963611;28;20031;-72
2022/04/09 07:30:11;;;;;;;10.77;3.40;;;;;;;6.46;67.19;100384.13;4960767;28;20166;-72
2022/04/09 07:32:36;;;;;;;13.47;3.53;;;;;;;6.60;66.97;100388.28;4972472;28;20035;-72
2022/04/09 07:35:02;;;;;;;12.25;3.58;;;;;;;6.87;67.11;100386.13;5001156;28;20360;-72
2022/04/09 07:37:28;;;;;;;12.98;3.38;;;;;;;7.19;65.29;100392.38;4963869;28;20019;-72
2022/04/09 07:39:53;;;;;;;10.93;3.50;;;;;;;7.32;65.51;100392.22;4956621;28;20076;-73
2022/04/09 07:42:20;;;;;;;11.82;3.53;;;;;;;7.08;64.75;100395.03;4973258;28;20207;-70
2022/04/09 07:44:45;;;;;;;14.63;3.13;;;;;;;7.04;65.64;100400.56;4979039;28;20261;-72
2022/04/09 07:47:10;;;;;;;11.95;3.50;;;;;;;6.97;65.27;100398.56;4979902;28;20465;-72
2022/04/09 07:49:36;;;;;;;12.70;3.38;;;;;;;6.95;64.66;100411.81;4977629;28;20011;-72
2022/04/09 07:52:01;;;;;;;10.50;2.92;;;;;;;6.76;64.43;100406.34;5003284;28;20026;-72
2022/04/09 07:54:29;;;;;;;32.10;3.72;;;;;;;6.81;63.87;100407.66;4994532;28;20029;-72
2022/04/09 07:56:55;;;;;;;7.25;2.70;;;;;;;6.91;64.43;100410.41;5012400;28;20029;-73
2022/04/09 07:59:20;;;;;;;11.02;3.35;;;;;;;6.98;65.48;100415.97;5003061;28;20109;-72
2022/04/09 08:01:46;;;;;;;11.27;3.47;;;;;;;7.30;64.13;100423.13;5004746;28;20033;-72
2022/04/09 08:04:11;;;;;;;13.65;3.47;;;;;;;7.28;63.65;100414.53;4978364;28;20041;-71
2022/04/09 08:06:36;;;;;;;11.48;3.20;;;;;;;7.50;62.91;100424.97;4975522;28;20679;-72
2022/04/09 08:09:02;;;;;;;13.60;2.90;;;;;;;7.50;63.34;100422.34;4971255;28;20456;-74
2022/04/09 08:11:28;;;;;;;8.43;3.17;;;;;;;7.65;62.83;100422.06;4948805;28;20037;-73
2022/04/09 08:13:54;;;;;;;14.50;2.95;;;;;;;7.62;61.05;100430.22;4970260;28;20031;-71
2022/04/09 08:16:19;;;;;;;9.48;2.50;;;;;;;7.50;61.40;100432.88;4973455;28;20022;-73
2022/04/09 08:18:45;;;;;;;11.32;3.30;;;;;;;7.39;61.95;100435.53;4978820;28;20014;-74
2022/04/09 08:21:10;;;;;;;8.95;3.05;;;;;;;7.40;62.32;100439.81;4982889;28;20019;-72
2022/04/09 08:23:36;;;;;;;9.25;2.90;;;;;;;7.65;62.75;100430.78;4946869;28;20026;-72
2022/04/09 08:26:01;;;;;;;11.10;3.33;;;;;;;7.95;61.38;100450.28;4978605;28;20053;-73
2022/04/09 08:28:30;;;;;;;8.98;2.83;;;;;;;7.96;61.54;100432.69;4975620;28;20019;-72
2022/04/09 08:30:55;;;;;;;10.10;2.83;;;;;;;8.28;60.79;100437.03;4968191;28;20100;-73
2022/04/09 08:33:21;;;;;;;11.10;3.30;;;;;;;8.12;59.84;100443.59;4979291;28;20023;-73
2022/04/09 08:35:47;;;;;;;11.73;3.40;;;;;;;8.02;59.68;100447.97;4982868;28;20352;-73
2022/04/09 08:38:12;;;;;;;9.85;3.33;;;;;;;8.23;61.09;100435.66;4978607;28;20220;-74
2022/04/09 08:40:38;;;;;;;11.88;3.17;;;;;;;8.39;58.82;100450.16;4979397;28;20033;-74
2022/04/09 08:43:04;;;;;;;17.42;3.13;;;;;;;8.70;58.10;100437.88;4961338;28;20022;-74
2022/04/09 08:45:35;;;;;;;8.80;2.92;;;;;;;8.42;59.53;100465.75;4978714;28;20027;-73
2022/04/09 08:48:02;;;;;;;6.75;2.05;;;;;;;8.14;59.98;100457.50;4970115;28;20023;-72
2022/04/09 08:50:27;;;;;;;8.65;2.00;;;;;;;7.78;59.42;100462.22;4953335;28;21018;-73
2022/04/09 08:52:53;;;;;;;6.20;2.35;;;;;;;7.56;61.06;100468.41;4966462;28;20141;-73
2022/04/09 08:55:18;;;;;;;9.95;2.47;;;;;;;7.30;64.51;100460.78;4968861;28;20043;-74
2022/04/09 08:57:43;;;;;;;5.88;2.20;;;;;;;7.13;65.93;100467.41;4968071;28;20038;-71
2022/04/09 09:00:10;;;;;;;5.03;2.00;;;;;;;6.93;66.40;100468.13;4958811;28;20981;-71
2022/04/09 09:02:36;;;;;;;4.28;1.80;;;;;;;6.90;66.85;100463.13;4944673;28;20066;-73
2022/04/09 09:05:02;;;;;;;4.30;2.25;;;;;;;6.93;68.10;100468.13;4962666;28;20030;-73
2022/04/09 09:07:28;;;;;;;4.25;1.83;;;;;;;6.88;68.79;100471.97;4983773;28;20344;-71
2022/04/09 09:09:53;;;;;;;4.40;2.10;;;;;;;6.87;68.91;100474.72;4981360;28;20026;-71
2022/04/09 09:12:26;;;;;;;5.97;1.98;;;;;;;6.65;69.47;100470.28;4961781;28;20039;-72
2022/04/09 09:14:51;;;;;;;4.35;2.10;;;;;;;6.45;70.27;100505.97;4954530;28;20034;-73
2022/04/09 09:17:28;;;;;;;4.88;2.00;;;;;;;6.16;70.89;100517.72;4968649;28;20134;-73
2022/04/09 09:19:53;;;;;;;11.23;2.40;;;;;;;5.91;70.79;100507.28;4974594;28;20018;-72
2022/04/09 09:22:19;;;;;;;7.25;2.60;;;;;;;5.67;71.24;100497.66;4965386;28;20183;-72
2022/04/09 09:25:03;;;;;;;7.20;2.55;;;;;;;5.43;71.73;100487.97;4955355;28;20026;-72
2022/04/09 09:27:28;;;;;;;6.03;2.65;;;;;;;5.35;72.24;100495.53;4965778;28;20028;-71
2022/04/09 09:29:55;;;;;;;4.68;2.25;;;;;;;5.18;73.71;100506.41;4971284;28;20159;-71
2022/04/09 09:32:25;;;;;;;5.05;3.00;;;;;;;5.12;74.94;100515.53;4970556;28;20235;-72
2022/04/09 09:34:54;;;;;;;10.27;3.25;;;;;;;5.05;75.93;100527.38;4973078;28;20730;-71
2022/04/09 09:37:21;;;;;;;6.63;2.95;;;;;;;5.02;77.00;100531.06;4971838;28;20034;-72
2022/04/09 09:39:46;;;;;;;8.50;3.20;;;;;;;5.32;75.65;100543.00;4973470;28;20419;-72
2022/04/09 09:42:17;;;;;;;9.52;3.30;;;;;;;5.20;75.97;100538.59;4975380;28;20887;-73
2022/04/09 09:44:43;;;;;;;9.20;2.90;;;;;;;5.15;77.42;100531.88;4981632;28;20401;-73
2022/04/09 09:47:09;;;;;;;6.68;2.88;;;;;;;5.15;76.70;100534.50;4982202;28;20048;-72
2022/04/09 09:49:41;;;;;;;8.82;3.20;;;;;;;5.24;77.21;100547.94;4993441;28;20061;-72
2022/04/09 09:52:08;;;;;;;8.60;2.67;;;;;;;5.28;77.54;100554.66;4982308;28;20041;-72
2022/04/09 09:54:34;;;;;;;4.75;2.47;;;;;;;4.97;75.85;100583.00;4983181;28;20023;-72
2022/04/09 09:57:00;;;;;;;3.97;1.20;;;;;;;4.71;66.46;100524.47;4959521;28;20015;-73
2022/04/09 09:59:27;;;;;;;2.13;1.08;;;;;;;4.85;68.34;100521.75;4966270;28;20027;-70
2022/04/09 10:01:54;;;;;;;3.17;1.60;;;;;;;4.86;70.23;100523.41;4957199;28;20061;-73
2022/04/09 10:04:19;;;;;;;7.47;1.70;;;;;;;4.98;72.67;100519.94;4954322;28;20552;-72
2022/04/09 10:06:45;;;;;;;3.58;1.90;;;;;;;5.60;73.13;100522.66;4952869;28;20025;-70
2022/04/09 10:09:13;;;;;;;3.65;1.90;;;;;;;7.37;68.89;100521.69;4965425;28;20862;-73
2022/04/09 10:11:49;;;;;;;5.93;1.90;;;;;;;9.26;64.45;100513.09;4976911;28;20317;-72
2022/04/09 10:14:20;;;;;;;2.53;1.77;;;;;;;10.37;60.53;100514.78;4965780;28;20013;-73
2022/04/09 10:16:45;;;;;;;4.60;1.85;;;;;;;10.98;59.40;100510.84;4960561;28;20849;-73
2022/04/09 10:19:11;;;;;;;7.65;2.10;;;;;;;11.82;57.15;100524.91;4962425;28;20030;-72
2022/04/09 10:21:38;;;;;;;4.63;2.30;;;;;;;10.83;57.59;100516.63;4971509;28;20087;-71
2022/04/09 10:24:05;;;;;;;5.13;2.22;;;;;;;10.92;58.89;100511.44;4966838;28;20492;-73
2022/04/09 10:26:30;;;;;;;6.60;2.33;;;;;;;11.26;58.00;100503.75;4964400;28;20171;-73
2022/04/09 10:29:09;;;;;;;8.93;2.50;;;;;;;11.35;58.20;100496.72;4976303;28;20100;-71
2022/04/09 10:31:36;;;;;;;5.57;2.95;;;;;;;12.83;56.90;100499.84;4992426;28;20409;-71
2022/04/09 10:34:03;;;;;;;7.70;2.75;;;;;;;13.61;52.21;100490.88;4973247;28;20271;-73
2022/04/09 10:36:40;;;;;;;6.13;2.60;;;;;;;13.54;51.96;100495.19;4959188;28;20018;-73
2022/04/09 10:39:40;;;;;;;5.32;2.40;;;;;;;12.87;53.97;100490.56;4984991;28;20099;-72
2022/04/09 10:42:09;;;;;;;8.57;3.20;;;;;;;11.50;53.88;100489.13;4986703;28;20080;-72
2022/04/09 10:44:43;;;;;;;6.60;2.47;;;;;;;11.30;56.95;100489.25;4992946;28;20018;-73
2022/04/09 10:47:16;;;;;;;5.93;2.60;;;;;;;11.14;57.29;100467.88;5002996;28;20570;-71
2022/04/09 10:49:42;;;;;;;7.43;3.00;;;;;;;11.51;56.99;100474.91;4980237;28;20023;-73
2022/04/09 10:52:11;;;;;;;10.63;2.33;;;;;;;11.76;47.19;100488.38;4978401;28;20049;-74
2022/04/09 10:54:37;;;;;;;7.03;2.17;;;;;;;11.44;48.21;100479.13;4985845;28;20400;-73
2022/04/09 10:57:10;;;;;;;4.57;2.20;;;;;;;11.03;48.20;100481.28;4978527;28;20003;-73
2022/04/09 10:59:36;;;;;;;4.75;2.20;;;;;;;10.37;49.16;100477.75;4984297;28;20125;-73
2022/04/09 11:02:04;;;;;;;7.15;2.20;;;;;;;10.12;49.66;100493.19;4981193;28;20165;-73
2022/04/09 11:04:29;;;;;;;2.13;1.10;;;;;;;9.77;53.81;100499.84;4972405;28;20022;-74
2022/04/09 11:07:14;;;;;;;1.05;0.82;;;;;;;8.87;56.09;100535.84;4985300;28;20015;-74
2022/04/09 11:09:50;;;;;;;0.90;0.80;;;;;;;8.67;57.57;100551.56;4991249;28;20141;-73
2022/04/09 11:12:29;;;;;;;0.90;0.80;;;;;;;8.56;59.02;100557.75;4972263;28;20033;-72
2022/04/09 11:15:02;;;;;;;0.60;0.60;;;;;;;8.99;59.43;100555.06;4988654;28;20029;-73
2022/04/09 11:17:43;;;;;;;0.60;0.60;;;;;;;9.67;57.20;100546.56;4976237;28;20866;-70
2022/04/09 11:20:18;;;;;;;2.10;1.10;;;;;;;9.99;55.53;100545.50;4970478;28;20600;-71
2022/04/09 11:22:45;;;;;;;2.45;1.30;;;;;;;9.57;56.14;100555.28;4958190;28;20119;-70
2022/04/09 11:25:21;;;;;;;2.90;1.00;;;;;;;8.83;57.30;100571.38;4971571;28;20723;-72
2022/04/09 11:27:47;;;;;;;1.75;1.20;;;;;;;8.46;59.51;100577.94;4976170;28;20019;-70